sensor_id;sensor_type;location;lat;lon;timestamp;P1;durP1;ratioP1;P2;durP2;ratioP2
71303;SDS011;59091;47.446;19.148;2023-04-23T00:02:01;20.00;;;11.70;;
71303;SDS011;59091;47.446;19.148;2023-04-23T00:04:27;22.55;;;11.65;;
71303;SDS011;59091;47.446;19.148;2023-04-23T00:06:57;22.25;;;11.88;;
71303;SDS011;59091;47.446;19.148;2023-04-23T00:09:24;17.70;;;10.95;;
71303;SDS011;59091;47.446;19.148;2023-04-23T00:11:55;19.17;;;11.60;;
71303;SDS011;59091;47.446;19.148;2023-04-23T00:14:22;19.30;;;10.85;;
71303;SDS011;59091;47.446;19.148;2023-04-23T00:16:48;19.42;;;11.40;;
71303;SDS011;59091;47.446;19.148;2023-04-23T00:19:13;18.95;;;11.35;;
71303;SDS011;59091;47.446;19.148;2023-04-23T00:21:39;23.73;;;12.00;;
71303;SDS011;59091;47.446;19.148;2023-04-23T00:24:04;24.48;;;11.85;;
71303;SDS011;59091;47.446;19.148;2023-04-23T00:26:30;20.50;;;11.15;;
71303;SDS011;59091;47.446;19.148;2023-04-23T00:28:55;17.55;;;11.23;;
71303;SDS011;59091;47.446;19.148;2023-04-23T00:31:21;16.52;;;11.05;;
71303;SDS011;59091;47.446;19.148;2023-04-23T00:33:48;23.42;;;11.70;;
71303;SDS011;59091;47.446;19.148;2023-04-23T00:36:13;21.73;;;10.77;;
71303;SDS011;59091;47.446;19.148;2023-04-23T00:38:39;19.00;;;11.27;;
71303;SDS011;59091;47.446;19.148;2023-04-23T00:41:04;24.42;;;11.82;;
71303;SDS011;59091;47.446;19.148;2023-04-23T00:43:31;19.20;;;11.02;;
71303;SDS011;59091;47.446;19.148;2023-04-23T00:45:57;18.33;;;11.45;;
71303;SDS011;59091;47.446;19.148;2023-04-23T00:48:23;19.17;;;10.90;;
71303;SDS011;59091;47.446;19.148;2023-04-23T00:50:48;17.90;;;11.18;;
71303;SDS011;59091;47.446;19.148;2023-04-23T00:53:23;22.35;;;11.73;;
71303;SDS011;59091;47.446;19.148;2023-04-23T00:55:48;18.33;;;10.65;;
71303;SDS011;59091;47.446;19.148;2023-04-23T00:58:14;19.20;;;11.05;;
71303;SDS011;59091;47.446;19.148;2023-04-23T01:00:43;18.73;;;11.07;;
71303;SDS011;59091;47.446;19.148;2023-04-23T01:03:10;19.63;;;10.80;;
71303;SDS011;59091;47.446;19.148;2023-04-23T01:05:37;16.48;;;10.63;;
71303;SDS011;59091;47.446;19.148;2023-04-23T01:08:05;18.08;;;10.43;;
71303;SDS011;59091;47.446;19.148;2023-04-23T01:10:31;18.88;;;10.65;;
71303;SDS011;59091;47.446;19.148;2023-04-23T01:12:57;18.33;;;10.80;;
71303;SDS011;59091;47.446;19.148;2023-04-23T01:15:23;20.70;;;11.32;;
71303;SDS011;59091;47.446;19.148;2023-04-23T01:17:48;16.42;;;10.18;;
71303;SDS011;59091;47.446;19.148;2023-04-23T01:20:14;17.15;;;10.60;;
71303;SDS011;59091;47.446;19.148;2023-04-23T01:22:40;15.85;;;10.60;;
71303;SDS011;59091;47.446;19.148;2023-04-23T01:25:05;20.85;;;11.23;;
71303;SDS011;59091;47.446;19.148;2023-04-23T01:27:32;17.70;;;10.80;;
71303;SDS011;59091;47.446;19.148;2023-04-23T01:30:00;17.58;;;9.75;;
71303;SDS011;59091;47.446;19.148;2023-04-23T01:32:29;18.48;;;10.50;;
71303;SDS011;59091;47.446;19.148;2023-04-23T01:34:55;19.85;;;11.07;;
71303;SDS011;59091;47.446;19.148;2023-04-23T01:37:22;18.30;;;10.75;;
71303;SDS011;59091;47.446;19.148;2023-04-23T01:39:48;16.83;;;10.30;;
71303;SDS011;59091;47.446;19.148;2023-04-23T01:42:13;15.57;;;10.30;;
71303;SDS011;59091;47.446;19.148;2023-04-23T01:44:39;14.77;;;10.02;;
71303;SDS011;59091;47.446;19.148;2023-04-23T01:47:05;17.67;;;10.55;;
71303;SDS011;59091;47.446;19.148;2023-04-23T01:49:30;16.33;;;10.25;;
71303;SDS011;59091;47.446;19.148;2023-04-23T01:51:56;17.05;;;10.10;;
71303;SDS011;59091;47.446;19.148;2023-04-23T01:54:21;18.02;;;11.18;;
71303;SDS011;59091;47.446;19.148;2023-04-23T01:56:47;18.58;;;10.27;;
71303;SDS011;59091;47.446;19.148;2023-04-23T01:59:12;25.35;;;11.18;;
71303;SDS011;59091;47.446;19.148;2023-04-23T02:01:41;19.83;;;11.25;;
71303;SDS011;59091;47.446;19.148;2023-04-23T02:04:11;18.75;;;11.10;;
71303;SDS011;59091;47.446;19.148;2023-04-23T02:06:38;17.58;;;10.57;;
71303;SDS011;59091;47.446;19.148;2023-04-23T02:09:04;20.17;;;11.35;;
71303;SDS011;59091;47.446;19.148;2023-04-23T02:11:30;18.52;;;10.30;;
71303;SDS011;59091;47.446;19.148;2023-04-23T02:13:55;19.02;;;10.95;;
71303;SDS011;59091;47.446;19.148;2023-04-23T02:16:20;19.55;;;9.90;;
71303;SDS011;59091;47.446;19.148;2023-04-23T02:18:48;18.05;;;10.77;;
71303;SDS011;59091;47.446;19.148;2023-04-23T02:21:14;15.18;;;10.38;;
71303;SDS011;59091;47.446;19.148;2023-04-23T02:23:40;18.55;;;9.95;;
71303;SDS011;59091;47.446;19.148;2023-04-23T02:26:05;21.92;;;10.70;;
71303;SDS011;59091;47.446;19.148;2023-04-23T02:28:31;17.05;;;10.43;;
71303;SDS011;59091;47.446;19.148;2023-04-23T02:30:57;18.55;;;10.38;;
71303;SDS011;59091;47.446;19.148;2023-04-23T02:33:22;15.68;;;10.05;;
71303;SDS011;59091;47.446;19.148;2023-04-23T02:35:49;15.60;;;10.52;;
71303;SDS011;59091;47.446;19.148;2023-04-23T02:38:15;20.40;;;10.32;;
71303;SDS011;59091;47.446;19.148;2023-04-23T02:40:40;17.13;;;10.05;;
71303;SDS011;59091;47.446;19.148;2023-04-23T02:43:06;20.40;;;10.52;;
71303;SDS011;59091;47.446;19.148;2023-04-23T02:45:31;19.85;;;10.52;;
71303;SDS011;59091;47.446;19.148;2023-04-23T02:47:56;15.88;;;10.93;;
71303;SDS011;59091;47.446;19.148;2023-04-23T02:50:22;17.73;;;10.48;;
71303;SDS011;59091;47.446;19.148;2023-04-23T02:52:47;20.75;;;11.02;;
71303;SDS011;59091;47.446;19.148;2023-04-23T02:55:13;15.00;;;10.27;;
71303;SDS011;59091;47.446;19.148;2023-04-23T02:57:39;19.90;;;10.48;;
71303;SDS011;59091;47.446;19.148;2023-04-23T03:00:05;18.30;;;10.63;;
71303;SDS011;59091;47.446;19.148;2023-04-23T03:02:31;17.27;;;10.60;;
71303;SDS011;59091;47.446;19.148;2023-04-23T03:04:57;16.90;;;10.35;;
71303;SDS011;59091;47.446;19.148;2023-04-23T03:07:22;19.80;;;10.18;;
71303;SDS011;59091;47.446;19.148;2023-04-23T03:09:48;18.05;;;10.48;;
71303;SDS011;59091;47.446;19.148;2023-04-23T03:12:13;17.15;;;10.57;;
71303;SDS011;59091;47.446;19.148;2023-04-23T03:14:38;17.33;;;10.73;;
71303;SDS011;59091;47.446;19.148;2023-04-23T03:17:04;19.08;;;10.50;;
71303;SDS011;59091;47.446;19.148;2023-04-23T03:19:30;18.35;;;11.07;;
71303;SDS011;59091;47.446;19.148;2023-04-23T03:21:56;14.93;;;10.27;;
71303;SDS011;59091;47.446;19.148;2023-04-23T03:24:21;16.83;;;10.43;;
71303;SDS011;59091;47.446;19.148;2023-04-23T03:26:47;19.52;;;11.52;;
71303;SDS011;59091;47.446;19.148;2023-04-23T03:29:12;24.42;;;11.25;;
71303;SDS011;59091;47.446;19.148;2023-04-23T03:31:38;19.58;;;10.75;;
71303;SDS011;59091;47.446;19.148;2023-04-23T03:34:03;15.75;;;10.60;;
71303;SDS011;59091;47.446;19.148;2023-04-23T03:36:29;17.30;;;10.52;;
71303;SDS011;59091;47.446;19.148;2023-04-23T03:38:54;15.65;;;10.40;;
71303;SDS011;59091;47.446;19.148;2023-04-23T03:41:20;18.33;;;10.70;;
71303;SDS011;59091;47.446;19.148;2023-04-23T03:43:45;19.85;;;10.85;;
71303;SDS011;59091;47.446;19.148;2023-04-23T03:46:10;16.65;;;11.18;;
71303;SDS011;59091;47.446;19.148;2023-04-23T03:48:36;16.63;;;10.55;;
71303;SDS011;59091;47.446;19.148;2023-04-23T03:51:01;20.60;;;11.00;;
71303;SDS011;59091;47.446;19.148;2023-04-23T03:53:27;22.35;;;11.23;;
71303;SDS011;59091;47.446;19.148;2023-04-23T03:55:52;20.73;;;11.02;;
71303;SDS011;59091;47.446;19.148;2023-04-23T03:58:18;19.17;;;10.80;;
71303;SDS011;59091;47.446;19.148;2023-04-23T04:00:43;17.95;;;10.50;;
71303;SDS011;59091;47.446;19.148;2023-04-23T04:03:09;21.05;;;11.25;;
71303;SDS011;59091;47.446;19.148;2023-04-23T04:05:35;17.08;;;10.75;;
71303;SDS011;59091;47.446;19.148;2023-04-23T04:08:00;19.38;;;10.18;;
71303;SDS011;59091;47.446;19.148;2023-04-23T04:10:26;19.23;;;10.38;;
71303;SDS011;59091;47.446;19.148;2023-04-23T04:12:51;21.42;;;10.90;;
71303;SDS011;59091;47.446;19.148;2023-04-23T04:15:19;18.25;;;11.75;;
71303;SDS011;59091;47.446;19.148;2023-04-23T04:17:45;22.40;;;11.57;;
71303;SDS011;59091;47.446;19.148;2023-04-23T04:20:11;17.77;;;11.90;;
71303;SDS011;59091;47.446;19.148;2023-04-23T04:22:36;23.95;;;11.70;;
71303;SDS011;59091;47.446;19.148;2023-04-23T04:25:02;19.23;;;11.05;;
71303;SDS011;59091;47.446;19.148;2023-04-23T04:27:29;19.15;;;11.55;;
71303;SDS011;59091;47.446;19.148;2023-04-23T04:29:57;23.60;;;11.43;;
71303;SDS011;59091;47.446;19.148;2023-04-23T04:32:23;25.77;;;11.52;;
71303;SDS011;59091;47.446;19.148;2023-04-23T04:34:48;17.90;;;10.77;;
71303;SDS011;59091;47.446;19.148;2023-04-23T04:37:14;23.02;;;11.63;;
71303;SDS011;59091;47.446;19.148;2023-04-23T04:39:40;22.42;;;11.73;;
71303;SDS011;59091;47.446;19.148;2023-04-23T04:42:06;23.88;;;11.27;;
71303;SDS011;59091;47.446;19.148;2023-04-23T04:44:32;21.30;;;11.27;;
71303;SDS011;59091;47.446;19.148;2023-04-23T04:47:01;20.45;;;11.05;;
71303;SDS011;59091;47.446;19.148;2023-04-23T04:49:26;33.50;;;21.08;;
71303;SDS011;59091;47.446;19.148;2023-04-23T04:51:52;52.83;;;30.17;;
71303;SDS011;59091;47.446;19.148;2023-04-23T04:54:18;75.93;;;40.50;;
71303;SDS011;59091;47.446;19.148;2023-04-23T04:56:43;30.02;;;18.42;;
71303;SDS011;59091;47.446;19.148;2023-04-23T04:59:09;22.08;;;14.00;;
71303;SDS011;59091;47.446;19.148;2023-04-23T05:01:34;18.27;;;11.05;;
71303;SDS011;59091;47.446;19.148;2023-04-23T05:04:01;21.25;;;10.73;;
71303;SDS011;59091;47.446;19.148;2023-04-23T05:06:26;16.90;;;10.15;;
71303;SDS011;59091;47.446;19.148;2023-04-23T05:08:52;16.20;;;9.60;;
71303;SDS011;59091;47.446;19.148;2023-04-23T05:11:18;15.40;;;10.02;;
71303;SDS011;59091;47.446;19.148;2023-04-23T05:13:45;14.45;;;10.23;;
71303;SDS011;59091;47.446;19.148;2023-04-23T05:16:13;15.23;;;9.10;;
71303;SDS011;59091;47.446;19.148;2023-04-23T05:18:39;17.10;;;9.95;;
71303;SDS011;59091;47.446;19.148;2023-04-23T05:21:05;20.02;;;10.15;;
71303;SDS011;59091;47.446;19.148;2023-04-23T05:23:32;17.73;;;9.93;;
71303;SDS011;59091;47.446;19.148;2023-04-23T05:25:57;15.10;;;9.57;;
71303;SDS011;59091;47.446;19.148;2023-04-23T05:28:23;11.45;;;8.15;;
71303;SDS011;59091;47.446;19.148;2023-04-23T05:30:49;17.67;;;10.27;;
71303;SDS011;59091;47.446;19.148;2023-04-23T05:33:15;23.52;;;9.63;;
71303;SDS011;59091;47.446;19.148;2023-04-23T05:35:41;20.95;;;9.43;;
71303;SDS011;59091;47.446;19.148;2023-04-23T05:38:07;19.83;;;10.32;;
71303;SDS011;59091;47.446;19.148;2023-04-23T05:40:32;19.42;;;10.18;;
71303;SDS011;59091;47.446;19.148;2023-04-23T05:42:58;15.68;;;9.93;;
71303;SDS011;59091;47.446;19.148;2023-04-23T05:45:24;12.70;;;9.60;;
71303;SDS011;59091;47.446;19.148;2023-04-23T05:47:49;17.30;;;9.82;;
71303;SDS011;59091;47.446;19.148;2023-04-23T05:50:15;15.65;;;9.90;;
71303;SDS011;59091;47.446;19.148;2023-04-23T05:52:41;14.15;;;9.55;;
71303;SDS011;59091;47.446;19.148;2023-04-23T05:55:07;14.55;;;10.32;;
71303;SDS011;59091;47.446;19.148;2023-04-23T05:57:33;18.70;;;11.68;;
71303;SDS011;59091;47.446;19.148;2023-04-23T06:00:00;22.63;;;12.00;;
71303;SDS011;59091;47.446;19.148;2023-04-23T06:02:25;15.95;;;10.70;;
71303;SDS011;59091;47.446;19.148;2023-04-23T06:04:53;15.57;;;11.52;;
71303;SDS011;59091;47.446;19.148;2023-04-23T06:07:18;19.38;;;11.93;;
71303;SDS011;59091;47.446;19.148;2023-04-23T06:09:44;18.88;;;11.43;;
71303;SDS011;59091;47.446;19.148;2023-04-23T06:12:10;16.30;;;11.05;;
71303;SDS011;59091;47.446;19.148;2023-04-23T06:14:35;17.20;;;10.70;;
71303;SDS011;59091;47.446;19.148;2023-04-23T06:17:01;17.00;;;11.00;;
71303;SDS011;59091;47.446;19.148;2023-04-23T06:19:26;25.08;;;10.10;;
71303;SDS011;59091;47.446;19.148;2023-04-23T06:21:52;12.88;;;8.50;;
71303;SDS011;59091;47.446;19.148;2023-04-23T06:24:18;11.80;;;8.20;;
71303;SDS011;59091;47.446;19.148;2023-04-23T06:26:43;16.77;;;8.10;;
71303;SDS011;59091;47.446;19.148;2023-04-23T06:29:09;13.63;;;7.90;;
71303;SDS011;59091;47.446;19.148;2023-04-23T06:31:34;11.35;;;8.10;;
71303;SDS011;59091;47.446;19.148;2023-04-23T06:34:00;13.73;;;8.18;;
71303;SDS011;59091;47.446;19.148;2023-04-23T06:36:25;15.65;;;8.50;;
71303;SDS011;59091;47.446;19.148;2023-04-23T06:38:51;15.18;;;8.88;;
71303;SDS011;59091;47.446;19.148;2023-04-23T06:41:16;10.23;;;7.75;;
71303;SDS011;59091;47.446;19.148;2023-04-23T06:43:42;16.83;;;7.95;;
71303;SDS011;59091;47.446;19.148;2023-04-23T06:46:07;13.93;;;7.93;;
71303;SDS011;59091;47.446;19.148;2023-04-23T06:48:33;15.27;;;7.80;;
71303;SDS011;59091;47.446;19.148;2023-04-23T06:50:59;18.70;;;8.30;;
71303;SDS011;59091;47.446;19.148;2023-04-23T06:53:24;13.30;;;7.75;;
71303;SDS011;59091;47.446;19.148;2023-04-23T06:55:49;12.13;;;7.95;;
71303;SDS011;59091;47.446;19.148;2023-04-23T06:58:15;10.60;;;7.53;;
71303;SDS011;59091;47.446;19.148;2023-04-23T07:00:42;11.18;;;7.68;;
71303;SDS011;59091;47.446;19.148;2023-04-23T07:03:07;12.38;;;8.05;;
71303;SDS011;59091;47.446;19.148;2023-04-23T07:05:33;18.83;;;7.70;;
71303;SDS011;59091;47.446;19.148;2023-04-23T07:07:58;14.70;;;7.25;;
71303;SDS011;59091;47.446;19.148;2023-04-23T07:10:24;14.35;;;7.65;;
71303;SDS011;59091;47.446;19.148;2023-04-23T07:12:49;10.40;;;7.00;;
71303;SDS011;59091;47.446;19.148;2023-04-23T07:15:15;8.43;;;6.05;;
71303;SDS011;59091;47.446;19.148;2023-04-23T07:17:40;8.23;;;6.05;;
71303;SDS011;59091;47.446;19.148;2023-04-23T07:20:06;12.57;;;6.80;;
71303;SDS011;59091;47.446;19.148;2023-04-23T07:22:32;12.98;;;6.00;;
71303;SDS011;59091;47.446;19.148;2023-04-23T07:24:58;9.55;;;6.45;;
71303;SDS011;59091;47.446;19.148;2023-04-23T07:27:24;10.93;;;6.80;;
71303;SDS011;59091;47.446;19.148;2023-04-23T07:29:50;11.77;;;6.25;;
71303;SDS011;59091;47.446;19.148;2023-04-23T07:32:15;11.93;;;6.60;;
71303;SDS011;59091;47.446;19.148;2023-04-23T07:34:41;14.63;;;6.70;;
71303;SDS011;59091;47.446;19.148;2023-04-23T07:37:06;11.07;;;5.95;;
71303;SDS011;59091;47.446;19.148;2023-04-23T07:39:32;9.35;;;6.40;;
71303;SDS011;59091;47.446;19.148;2023-04-23T07:41:58;9.93;;;6.20;;
71303;SDS011;59091;47.446;19.148;2023-04-23T07:44:24;10.60;;;5.90;;
71303;SDS011;59091;47.446;19.148;2023-04-23T07:46:49;8.85;;;5.63;;
71303;SDS011;59091;47.446;19.148;2023-04-23T07:49:15;13.10;;;5.50;;
71303;SDS011;59091;47.446;19.148;2023-04-23T07:51:41;8.55;;;5.60;;
71303;SDS011;59091;47.446;19.148;2023-04-23T07:54:07;12.20;;;5.78;;
71303;SDS011;59091;47.446;19.148;2023-04-23T07:56:33;9.35;;;5.97;;
71303;SDS011;59091;47.446;19.148;2023-04-23T07:58:59;8.25;;;5.70;;
71303;SDS011;59091;47.446;19.148;2023-04-23T08:01:24;7.55;;;5.40;;
71303;SDS011;59091;47.446;19.148;2023-04-23T08:03:50;8.93;;;5.03;;
71303;SDS011;59091;47.446;19.148;2023-04-23T08:06:16;6.82;;;5.25;;
71303;SDS011;59091;47.446;19.148;2023-04-23T08:08:42;6.72;;;4.85;;
71303;SDS011;59091;47.446;19.148;2023-04-23T08:11:08;6.72;;;4.93;;
71303;SDS011;59091;47.446;19.148;2023-04-23T08:13:34;9.60;;;5.60;;
71303;SDS011;59091;47.446;19.148;2023-04-23T08:15:59;7.18;;;6.05;;
71303;SDS011;59091;47.446;19.148;2023-04-23T08:18:25;7.85;;;5.80;;
71303;SDS011;59091;47.446;19.148;2023-04-23T08:20:50;7.43;;;6.00;;
71303;SDS011;59091;47.446;19.148;2023-04-23T08:23:17;11.07;;;5.70;;
71303;SDS011;59091;47.446;19.148;2023-04-23T08:25:43;8.73;;;4.90;;
71303;SDS011;59091;47.446;19.148;2023-04-23T08:28:08;5.97;;;4.85;;
71303;SDS011;59091;47.446;19.148;2023-04-23T08:30:33;10.68;;;4.82;;
71303;SDS011;59091;47.446;19.148;2023-04-23T08:32:59;8.07;;;5.80;;
71303;SDS011;59091;47.446;19.148;2023-04-23T08:35:24;6.80;;;5.20;;
71303;SDS011;59091;47.446;19.148;2023-04-23T08:37:50;7.80;;;5.15;;
71303;SDS011;59091;47.446;19.148;2023-04-23T08:40:15;11.88;;;5.03;;
71303;SDS011;59091;47.446;19.148;2023-04-23T08:42:42;5.95;;;5.13;;
71303;SDS011;59091;47.446;19.148;2023-04-23T08:45:15;15.68;;;4.70;;
71303;SDS011;59091;47.446;19.148;2023-04-23T08:47:41;5.68;;;4.53;;
71303;SDS011;59091;47.446;19.148;2023-04-23T08:50:07;11.05;;;4.68;;
71303;SDS011;59091;47.446;19.148;2023-04-23T08:52:35;9.25;;;5.60;;
71303;SDS011;59091;47.446;19.148;2023-04-23T08:55:04;7.18;;;4.47;;
71303;SDS011;59091;47.446;19.148;2023-04-23T08:57:34;12.75;;;5.00;;
71303;SDS011;59091;47.446;19.148;2023-04-23T09:00:02;13.68;;;5.80;;
71303;SDS011;59091;47.446;19.148;2023-04-23T09:02:50;10.75;;;5.45;;
71303;SDS011;59091;47.446;19.148;2023-04-23T09:05:15;7.18;;;5.13;;
71303;SDS011;59091;47.446;19.148;2023-04-23T09:07:41;5.78;;;5.18;;
71303;SDS011;59091;47.446;19.148;2023-04-23T09:10:08;8.65;;;4.85;;
71303;SDS011;59091;47.446;19.148;2023-04-23T09:12:36;6.03;;;4.60;;
71303;SDS011;59091;47.446;19.148;2023-04-23T09:15:03;5.25;;;4.18;;
71303;SDS011;59091;47.446;19.148;2023-04-23T09:17:34;6.55;;;5.47;;
71303;SDS011;59091;47.446;19.148;2023-04-23T09:20:01;8.88;;;5.25;;
71303;SDS011;59091;47.446;19.148;2023-04-23T09:25:23;9.20;;;5.43;;
71303;SDS011;59091;47.446;19.148;2023-04-23T09:27:49;7.50;;;5.05;;
71303;SDS011;59091;47.446;19.148;2023-04-23T09:30:16;11.00;;;5.63;;
71303;SDS011;59091;47.446;19.148;2023-04-23T09:32:43;10.15;;;5.40;;
71303;SDS011;59091;47.446;19.148;2023-04-23T09:35:13;11.15;;;5.00;;
71303;SDS011;59091;47.446;19.148;2023-04-23T09:37:40;9.77;;;5.05;;
71303;SDS011;59091;47.446;19.148;2023-04-23T09:40:07;7.68;;;4.50;;
71303;SDS011;59091;47.446;19.148;2023-04-23T09:42:37;11.73;;;4.47;;
71303;SDS011;59091;47.446;19.148;2023-04-23T09:45:04;5.82;;;4.65;;
71303;SDS011;59091;47.446;19.148;2023-04-23T09:47:39;10.80;;;4.90;;
71303;SDS011;59091;47.446;19.148;2023-04-23T09:50:05;8.00;;;4.28;;
71303;SDS011;59091;47.446;19.148;2023-04-23T09:52:31;7.20;;;4.18;;
71303;SDS011;59091;47.446;19.148;2023-04-23T09:55:00;7.72;;;4.50;;
71303;SDS011;59091;47.446;19.148;2023-04-23T09:57:26;6.15;;;4.30;;
71303;SDS011;59091;47.446;19.148;2023-04-23T09:59:52;6.85;;;4.00;;
71303;SDS011;59091;47.446;19.148;2023-04-23T10:02:25;8.80;;;5.10;;
71303;SDS011;59091;47.446;19.148;2023-04-23T10:04:51;12.00;;;4.43;;
71303;SDS011;59091;47.446;19.148;2023-04-23T10:07:17;10.15;;;4.28;;
71303;SDS011;59091;47.446;19.148;2023-04-23T10:09:43;4.70;;;3.80;;
71303;SDS011;59091;47.446;19.148;2023-04-23T10:12:08;9.43;;;4.18;;
71303;SDS011;59091;47.446;19.148;2023-04-23T10:14:35;8.35;;;3.83;;
71303;SDS011;59091;47.446;19.148;2023-04-23T10:17:02;7.55;;;4.00;;
71303;SDS011;59091;47.446;19.148;2023-04-23T10:19:29;6.93;;;4.10;;
71303;SDS011;59091;47.446;19.148;2023-04-23T10:21:58;6.07;;;3.80;;
71303;SDS011;59091;47.446;19.148;2023-04-23T10:24:28;5.43;;;4.00;;
71303;SDS011;59091;47.446;19.148;2023-04-23T10:26:57;4.68;;;3.92;;
71303;SDS011;59091;47.446;19.148;2023-04-23T10:29:26;9.60;;;4.10;;
71303;SDS011;59091;47.446;19.148;2023-04-23T10:31:57;5.22;;;3.90;;
71303;SDS011;59091;47.446;19.148;2023-04-23T10:34:25;6.32;;;3.97;;
71303;SDS011;59091;47.446;19.148;2023-04-23T10:36:53;9.90;;;4.10;;
71303;SDS011;59091;47.446;19.148;2023-04-23T10:39:20;5.15;;;3.78;;
71303;SDS011;59091;47.446;19.148;2023-04-23T10:41:48;5.93;;;3.88;;
71303;SDS011;59091;47.446;19.148;2023-04-23T10:44:14;5.57;;;3.58;;
71303;SDS011;59091;47.446;19.148;2023-04-23T10:46:49;9.45;;;3.60;;
71303;SDS011;59091;47.446;19.148;2023-04-23T10:49:16;9.43;;;3.70;;
71303;SDS011;59091;47.446;19.148;2023-04-23T10:51:44;5.22;;;3.80;;
71303;SDS011;59091;47.446;19.148;2023-04-23T10:54:13;5.85;;;3.38;;
71303;SDS011;59091;47.446;19.148;2023-04-23T10:56:39;4.78;;;3.67;;
71303;SDS011;59091;47.446;19.148;2023-04-23T10:59:18;6.38;;;3.80;;
71303;SDS011;59091;47.446;19.148;2023-04-23T11:01:46;4.18;;;3.42;;
71303;SDS011;59091;47.446;19.148;2023-04-23T11:06:50;6.45;;;3.92;;
71303;SDS011;59091;47.446;19.148;2023-04-23T11:14:51;4.20;;;3.78;;
71303;SDS011;59091;47.446;19.148;2023-04-23T11:18:06;5.95;;;4.00;;
71303;SDS011;59091;47.446;19.148;2023-04-23T11:20:17;7.07;;;3.60;;
71303;SDS011;59091;47.446;19.148;2023-04-23T11:22:45;11.35;;;3.83;;
71303;SDS011;59091;47.446;19.148;2023-04-23T11:25:32;4.45;;;3.88;;
71303;SDS011;59091;47.446;19.148;2023-04-23T11:27:57;8.20;;;4.03;;
71303;SDS011;59091;47.446;19.148;2023-04-23T11:30:23;7.15;;;3.90;;
71303;SDS011;59091;47.446;19.148;2023-04-23T11:32:51;10.05;;;4.20;;
71303;SDS011;59091;47.446;19.148;2023-04-23T11:35:19;9.88;;;3.65;;
71303;SDS011;59091;47.446;19.148;2023-04-23T11:37:46;6.60;;;3.70;;
71303;SDS011;59091;47.446;19.148;2023-04-23T11:40:14;6.25;;;3.88;;
71303;SDS011;59091;47.446;19.148;2023-04-23T11:42:45;18.80;;;4.05;;
71303;SDS011;59091;47.446;19.148;2023-04-23T11:45:18;4.13;;;3.70;;
71303;SDS011;59091;47.446;19.148;2023-04-23T11:47:51;5.35;;;3.50;;
71303;SDS011;59091;47.446;19.148;2023-04-23T11:50:20;8.15;;;3.97;;
71303;SDS011;59091;47.446;19.148;2023-04-23T11:52:48;6.55;;;3.90;;
71303;SDS011;59091;47.446;19.148;2023-04-23T11:55:13;6.10;;;3.63;;
71303;SDS011;59091;47.446;19.148;2023-04-23T11:57:41;4.38;;;3.70;;
71303;SDS011;59091;47.446;19.148;2023-04-23T12:00:14;5.07;;;3.67;;
71303;SDS011;59091;47.446;19.148;2023-04-23T12:02:54;5.75;;;3.75;;
71303;SDS011;59091;47.446;19.148;2023-04-23T12:07:52;7.50;;;5.00;;
71303;SDS011;59091;47.446;19.148;2023-04-23T12:10:19;6.07;;;4.13;;
71303;SDS011;59091;47.446;19.148;2023-04-23T12:12:52;6.40;;;4.15;;
71303;SDS011;59091;47.446;19.148;2023-04-23T12:15:18;6.05;;;3.80;;
71303;SDS011;59091;47.446;19.148;2023-04-23T12:17:50;4.25;;;3.85;;
71303;SDS011;59091;47.446;19.148;2023-04-23T12:20:19;5.97;;;3.83;;
71303;SDS011;59091;47.446;19.148;2023-04-23T12:22:45;5.60;;;3.92;;
71303;SDS011;59091;47.446;19.148;2023-04-23T12:25:11;8.23;;;3.90;;
71303;SDS011;59091;47.446;19.148;2023-04-23T12:27:40;5.18;;;3.90;;
71303;SDS011;59091;47.446;19.148;2023-04-23T12:30:08;7.05;;;3.90;;
71303;SDS011;59091;47.446;19.148;2023-04-23T12:32:35;5.05;;;3.65;;
71303;SDS011;59091;47.446;19.148;2023-04-23T12:35:02;9.32;;;4.05;;
71303;SDS011;59091;47.446;19.148;2023-04-23T12:37:33;7.05;;;4.60;;
71303;SDS011;59091;47.446;19.148;2023-04-23T12:40:01;4.72;;;3.72;;
71303;SDS011;59091;47.446;19.148;2023-04-23T12:42:31;6.43;;;3.78;;
71303;SDS011;59091;47.446;19.148;2023-04-23T12:45:03;4.57;;;3.92;;
71303;SDS011;59091;47.446;19.148;2023-04-23T12:47:31;8.73;;;4.07;;
71303;SDS011;59091;47.446;19.148;2023-04-23T12:49:56;10.98;;;4.20;;
71303;SDS011;59091;47.446;19.148;2023-04-23T12:52:22;10.10;;;4.30;;
71303;SDS011;59091;47.446;19.148;2023-04-23T12:54:47;10.68;;;4.22;;
71303;SDS011;59091;47.446;19.148;2023-04-23T12:57:16;7.03;;;4.20;;
71303;SDS011;59091;47.446;19.148;2023-04-23T12:59:46;5.90;;;3.78;;
71303;SDS011;59091;47.446;19.148;2023-04-23T13:02:11;5.43;;;3.60;;
71303;SDS011;59091;47.446;19.148;2023-04-23T13:04:37;6.57;;;3.70;;
71303;SDS011;59091;47.446;19.148;2023-04-23T13:07:02;4.97;;;3.60;;
71303;SDS011;59091;47.446;19.148;2023-04-23T13:09:28;6.53;;;3.70;;
71303;SDS011;59091;47.446;19.148;2023-04-23T13:11:54;5.75;;;4.00;;
71303;SDS011;59091;47.446;19.148;2023-04-23T13:14:19;5.30;;;3.65;;
71303;SDS011;59091;47.446;19.148;2023-04-23T13:16:45;10.07;;;3.97;;
71303;SDS011;59091;47.446;19.148;2023-04-23T13:19:11;4.57;;;3.58;;
71303;SDS011;59091;47.446;19.148;2023-04-23T13:21:37;5.03;;;3.58;;
71303;SDS011;59091;47.446;19.148;2023-04-23T13:24:03;8.25;;;4.10;;
71303;SDS011;59091;47.446;19.148;2023-04-23T13:26:28;3.80;;;3.38;;
71303;SDS011;59091;47.446;19.148;2023-04-23T13:28:56;5.55;;;3.60;;
71303;SDS011;59091;47.446;19.148;2023-04-23T13:31:25;5.35;;;3.47;;
71303;SDS011;59091;47.446;19.148;2023-04-23T13:33:51;4.55;;;3.80;;
71303;SDS011;59091;47.446;19.148;2023-04-23T13:36:17;6.20;;;3.58;;
71303;SDS011;59091;47.446;19.148;2023-04-23T13:38:43;8.00;;;3.05;;
71303;SDS011;59091;47.446;19.148;2023-04-23T13:41:08;10.38;;;3.60;;
71303;SDS011;59091;47.446;19.148;2023-04-23T13:43:33;7.05;;;3.55;;
71303;SDS011;59091;47.446;19.148;2023-04-23T13:45:59;5.60;;;3.35;;
71303;SDS011;59091;47.446;19.148;2023-04-23T13:48:25;8.48;;;3.80;;
71303;SDS011;59091;47.446;19.148;2023-04-23T13:50:55;4.00;;;3.63;;
71303;SDS011;59091;47.446;19.148;2023-04-23T13:53:24;7.10;;;3.70;;
71303;SDS011;59091;47.446;19.148;2023-04-23T13:55:50;12.10;;;3.47;;
71303;SDS011;59091;47.446;19.148;2023-04-23T13:58:16;5.55;;;3.60;;
71303;SDS011;59091;47.446;19.148;2023-04-23T14:00:42;14.73;;;3.67;;
71303;SDS011;59091;47.446;19.148;2023-04-23T14:03:08;5.32;;;3.88;;
71303;SDS011;59091;47.446;19.148;2023-04-23T14:05:33;3.92;;;3.53;;
71303;SDS011;59091;47.446;19.148;2023-04-23T14:07:59;5.25;;;3.65;;
71303;SDS011;59091;47.446;19.148;2023-04-23T14:10:25;5.38;;;3.80;;
71303;SDS011;59091;47.446;19.148;2023-04-23T14:12:50;3.78;;;3.47;;
71303;SDS011;59091;47.446;19.148;2023-04-23T14:15:17;3.72;;;3.33;;
71303;SDS011;59091;47.446;19.148;2023-04-23T14:17:42;3.80;;;3.42;;
71303;SDS011;59091;47.446;19.148;2023-04-23T14:20:09;5.88;;;3.30;;
71303;SDS011;59091;47.446;19.148;2023-04-23T14:22:36;5.60;;;4.00;;
71303;SDS011;59091;47.446;19.148;2023-04-23T14:27:49;6.95;;;3.35;;
71303;SDS011;59091;47.446;19.148;2023-04-23T14:30:17;5.03;;;3.58;;
71303;SDS011;59091;47.446;19.148;2023-04-23T14:32:44;5.82;;;3.78;;
71303;SDS011;59091;47.446;19.148;2023-04-23T14:35:13;3.67;;;3.30;;